createdAt,value
2018-01-29T00:02:03.855Z,2.90
2018-01-29T00:04:32.151Z,3.43
2018-01-29T00:07:00.500Z,2.90
2018-01-29T00:09:28.800Z,2.50
2018-01-29T00:11:57.091Z,3.40
2018-01-29T00:14:25.440Z,3.13
2018-01-29T00:16:53.744Z,3.40
2018-01-29T00:19:22.551Z,2.77
2018-01-29T00:21:50.906Z,2.63
2018-01-29T00:24:19.204Z,2.70
2018-01-29T00:26:47.284Z,2.10
2018-01-29T00:29:15.611Z,2.03
2018-01-29T00:31:43.916Z,2.50
2018-01-29T00:34:12.263Z,2.70
2018-01-29T00:36:40.559Z,2.23
2018-01-29T00:39:08.864Z,2.33
2018-01-29T00:41:37.984Z,2.70
2018-01-29T00:44:06.284Z,2.70
2018-01-29T00:46:34.584Z,2.53
2018-01-29T00:49:02.948Z,3.00
2018-01-29T00:51:31.239Z,3.27
2018-01-29T00:53:59.544Z,2.80
2018-01-29T00:56:29.772Z,2.70
2018-01-29T00:58:58.100Z,3.17
2018-01-29T01:01:26.399Z,2.93
2018-01-29T01:03:54.758Z,2.17
2018-01-29T01:06:23.062Z,3.30
2018-01-29T01:08:51.388Z,3.20
2018-01-29T01:11:20.443Z,2.40
2018-01-29T01:13:49.036Z,2.50
2018-01-29T01:16:18.839Z,2.60
2018-01-29T01:18:47.799Z,3.10
2018-01-29T01:21:16.438Z,2.57
2018-01-29T01:23:45.521Z,3.07
2018-01-29T01:26:13.814Z,3.03
2018-01-29T01:28:42.712Z,3.03
2018-01-29T01:31:11.776Z,3.90
2018-01-29T01:33:40.075Z,3.63
2018-01-29T01:36:09.336Z,3.07
2018-01-29T01:38:37.623Z,3.30
2018-01-29T01:41:05.928Z,3.17
2018-01-29T01:43:35.307Z,3.30
2018-01-29T01:46:03.607Z,3.30
2018-01-29T01:48:31.959Z,3.60
2018-01-29T01:51:00.301Z,3.70
2018-01-29T01:53:28.598Z,3.20
2018-01-29T01:55:56.967Z,3.37
2018-01-29T01:58:25.308Z,3.57
2018-01-29T02:00:54.371Z,3.70
2018-01-29T02:03:22.693Z,4.40
2018-01-29T02:05:51.196Z,3.60
2018-01-29T02:08:19.495Z,3.80
2018-01-29T02:10:47.852Z,3.33
2018-01-29T02:13:16.160Z,3.20
2018-01-29T02:15:45.476Z,3.30
2018-01-29T02:18:13.803Z,3.40
2018-01-29T02:20:42.175Z,4.27
2018-01-29T02:23:10.504Z,3.80
2018-01-29T02:25:39.059Z,4.30
2018-01-29T02:28:09.484Z,3.87
2018-01-29T02:30:37.781Z,3.20
2018-01-29T02:33:06.612Z,3.57
2018-01-29T02:35:34.935Z,3.50
2018-01-29T02:38:03.246Z,2.80
2018-01-29T02:40:31.976Z,3.57
2018-01-29T02:43:00.348Z,3.33
2018-01-29T02:45:28.679Z,2.90
2018-01-29T02:47:57.028Z,3.23
2018-01-29T02:50:25.339Z,2.20
2018-01-29T02:52:53.647Z,2.60
2018-01-29T02:55:21.987Z,2.60
2018-01-29T02:57:51.201Z,3.30
2018-01-29T03:00:20.908Z,3.07
2018-01-29T03:02:49.597Z,3.50
2018-01-29T03:05:18.248Z,2.27
2018-01-29T03:07:47.423Z,1.97
2018-01-29T03:10:16.448Z,1.80
2018-01-29T03:12:45.564Z,1.80
2018-01-29T03:15:14.274Z,2.30
2018-01-29T03:17:43.013Z,2.00
2018-01-29T03:20:12.144Z,2.00
2018-01-29T03:22:41.233Z,2.03
2018-01-29T03:25:09.948Z,1.53
2018-01-29T03:27:39.258Z,1.80
2018-01-29T03:30:08.257Z,2.00
2018-01-29T03:32:37.470Z,1.87
2018-01-29T03:35:06.074Z,1.90
2018-01-29T03:37:35.431Z,1.83
2018-01-29T03:40:05.096Z,2.20
2018-01-29T03:42:33.395Z,1.97
2018-01-29T03:45:02.367Z,2.23
2018-01-29T03:47:30.677Z,1.67
2018-01-29T03:49:59.167Z,1.60
2018-01-29T03:52:27.740Z,2.03
2018-01-29T03:54:56.282Z,1.67
2018-01-29T03:57:24.586Z,2.00
2018-01-29T03:59:53.290Z,1.80
2018-01-29T04:02:21.584Z,1.67
2018-01-29T04:04:49.890Z,2.00
2018-01-29T04:07:18.739Z,1.90
2018-01-29T04:09:47.038Z,2.13
2018-01-29T04:12:15.475Z,1.80
2018-01-29T04:14:43.799Z,1.60
2018-01-29T04:17:12.104Z,2.20
2018-01-29T04:19:40.431Z,1.90
2018-01-29T04:22:09.315Z,1.50
2018-01-29T04:24:37.606Z,1.90
2018-01-29T04:27:05.905Z,1.80
2018-01-29T04:29:34.264Z,1.27
2018-01-29T04:32:02.565Z,2.20
2018-01-29T04:34:30.864Z,1.93
2018-01-29T04:36:59.474Z,2.00
2018-01-29T04:39:27.785Z,1.60
2018-01-29T04:41:56.087Z,1.53
2018-01-29T04:44:24.411Z,1.67
2018-01-29T04:46:53.475Z,1.80
2018-01-29T04:49:22.004Z,1.70
2018-01-29T04:51:50.308Z,1.50
2018-01-29T04:54:19.329Z,1.50
2018-01-29T04:56:47.664Z,1.43
2018-01-29T04:59:16.133Z,1.57
2018-01-29T05:01:45.180Z,2.17
2018-01-29T05:04:13.797Z,1.70
2018-01-29T05:06:42.112Z,1.63
2018-01-29T05:09:10.414Z,1.40
2018-01-29T05:11:38.790Z,1.73
2018-01-29T05:14:07.091Z,1.90
2018-01-29T05:16:35.384Z,1.70
2018-01-29T05:19:03.715Z,1.80
2018-01-29T05:21:32.124Z,1.63
2018-01-29T05:24:00.423Z,1.57
2018-01-29T05:26:28.809Z,1.90
2018-01-29T05:28:57.850Z,2.10
2018-01-29T05:31:26.143Z,1.77
2018-01-29T05:33:54.496Z,1.30
2018-01-29T05:36:26.698Z,1.40
2018-01-29T05:38:55.031Z,1.67
2018-01-29T05:41:23.963Z,2.10
2018-01-29T05:43:52.255Z,1.50
2018-01-29T05:46:21.384Z,1.60
2018-01-29T05:48:49.689Z,1.43
2018-01-29T05:51:17.982Z,1.53
2018-01-29T05:53:46.335Z,1.70
2018-01-29T05:56:14.631Z,2.07
2018-01-29T05:58:42.928Z,1.97
2018-01-29T06:01:11.263Z,2.07
2018-01-29T06:03:39.559Z,3.80
2018-01-29T06:06:07.855Z,4.90
2018-01-29T06:08:36.943Z,3.83
2018-01-29T06:11:05.248Z,3.90
2018-01-29T06:13:33.603Z,2.70
2018-01-29T06:16:01.911Z,2.10
2018-01-29T06:18:30.334Z,3.00
2018-01-29T06:20:58.698Z,2.20
2018-01-29T06:23:27.014Z,3.13
2018-01-29T06:25:55.320Z,3.40
2018-01-29T06:28:24.397Z,3.63
2018-01-29T06:30:52.615Z,2.77
2018-01-29T06:33:20.923Z,1.90
2018-01-29T06:35:49.136Z,2.60
2018-01-29T06:38:17.622Z,2.37
2018-01-29T06:40:46.691Z,2.53
2018-01-29T06:43:15.599Z,2.10
2018-01-29T06:45:44.968Z,1.97
2018-01-29T06:48:13.259Z,1.70
2018-01-29T06:50:41.551Z,1.70
2018-01-29T06:53:10.423Z,1.73
2018-01-29T06:55:38.999Z,2.20
2018-01-29T06:58:08.007Z,2.50
2018-01-29T07:00:37.000Z,2.10
2018-01-29T07:03:05.304Z,1.80
2018-01-29T07:05:33.623Z,1.90
2018-01-29T07:08:01.959Z,2.10
2018-01-29T07:10:30.262Z,2.13
2018-01-29T07:12:58.559Z,2.20
2018-01-29T07:15:28.268Z,2.30
2018-01-29T07:17:57.487Z,2.07
2018-01-29T07:20:25.799Z,2.43
2018-01-29T07:22:54.100Z,2.80
2018-01-29T07:25:22.466Z,2.43
2018-01-29T07:27:50.537Z,1.83
2018-01-29T07:30:18.971Z,2.53
2018-01-29T07:32:47.579Z,2.10
2018-01-29T07:35:15.879Z,2.17
2018-01-29T07:37:44.176Z,2.27
2018-01-29T07:40:12.392Z,2.10
2018-01-29T07:42:40.700Z,2.67
2018-01-29T07:45:09.873Z,2.93
2018-01-29T07:47:38.215Z,3.10
2018-01-29T07:50:06.532Z,4.57
2018-01-29T07:52:34.888Z,2.57
2018-01-29T07:55:03.308Z,1.77
2018-01-29T07:57:31.612Z,2.03
2018-01-29T07:59:59.968Z,2.20
2018-01-29T08:02:28.274Z,2.17
2018-01-29T08:04:56.935Z,2.03
2018-01-29T08:07:25.780Z,2.80
2018-01-29T08:09:54.336Z,3.80
2018-01-29T08:12:22.643Z,2.03
2018-01-29T08:14:51.018Z,1.30
2018-01-29T08:17:19.408Z,1.40
2018-01-29T08:19:47.714Z,1.30
2018-01-29T08:22:16.285Z,1.33
2018-01-29T08:24:45.756Z,1.27
2018-01-29T08:27:14.072Z,1.57
2018-01-29T08:29:43.196Z,1.77
2018-01-29T08:32:11.615Z,1.20
2018-01-29T08:34:39.916Z,1.60
2018-01-29T08:37:08.268Z,1.37
2018-01-29T08:39:36.576Z,1.50
2018-01-29T08:42:06.313Z,1.13
2018-01-29T08:44:34.656Z,1.20
2018-01-29T08:47:03.500Z,1.40
2018-01-29T08:49:31.811Z,1.83
2018-01-29T08:52:00.635Z,1.67
2018-01-29T08:54:28.940Z,1.73
2018-01-29T08:56:57.236Z,1.73
2018-01-29T08:59:25.579Z,1.73
2018-01-29T09:01:54.652Z,1.80
2018-01-29T09:04:23.832Z,1.33
2018-01-29T09:06:52.679Z,1.60
2018-01-29T09:09:21.033Z,2.20
2018-01-29T09:11:49.146Z,2.20
2018-01-29T09:14:17.502Z,1.93
2018-01-29T09:16:45.812Z,1.30
2018-01-29T09:19:14.440Z,1.80
2018-01-29T09:21:42.788Z,1.40
2018-01-29T09:24:11.272Z,2.00
2018-01-29T09:26:39.597Z,1.70
2018-01-29T09:29:08.317Z,1.40
2018-01-29T09:31:36.849Z,1.60
2018-01-29T09:34:05.156Z,1.50
2018-01-29T09:36:33.528Z,2.13
2018-01-29T09:39:01.744Z,1.60
2018-01-29T09:41:30.284Z,2.00
2018-01-29T09:43:59.132Z,1.30
2018-01-29T09:46:27.474Z,1.50
2018-01-29T09:48:56.364Z,1.50
2018-01-29T09:51:24.688Z,1.90
2018-01-29T09:53:53.636Z,1.70
2018-01-29T09:56:21.955Z,1.37
2018-01-29T09:58:50.520Z,2.00
2018-01-29T10:01:18.876Z,1.60
2018-01-29T10:03:47.206Z,1.60
2018-01-29T10:06:15.516Z,1.30
2018-01-29T10:08:43.876Z,1.20
2018-01-29T10:11:12.179Z,1.40
2018-01-29T10:13:40.552Z,1.23
2018-01-29T10:16:08.918Z,1.30
2018-01-29T10:18:37.232Z,1.37
2018-01-29T10:21:05.571Z,1.10
2018-01-29T10:23:34.387Z,1.20
2018-01-29T10:26:03.318Z,1.50
2018-01-29T10:28:31.630Z,1.50
2018-01-29T10:30:59.935Z,1.70
2018-01-29T10:33:28.292Z,1.67
2018-01-29T10:35:56.599Z,1.70
2018-01-29T10:38:25.387Z,1.77
2018-01-29T10:40:53.752Z,1.73
2018-01-29T10:43:22.071Z,1.80
2018-01-29T10:45:50.386Z,1.93
2018-01-29T10:48:18.735Z,2.10
2018-01-29T10:50:47.812Z,2.17
2018-01-29T10:53:16.123Z,1.90
2018-01-29T10:55:44.500Z,1.87
2018-01-29T10:58:12.807Z,2.53
2018-01-29T11:00:46.630Z,2.07
2018-01-29T11:03:14.928Z,2.30
2018-01-29T11:05:43.244Z,2.13
2018-01-29T11:08:11.483Z,1.83
2018-01-29T11:10:40.995Z,2.10
2018-01-29T11:13:11.408Z,2.17
2018-01-29T11:15:39.748Z,1.50
2018-01-29T11:18:07.978Z,1.43
2018-01-29T11:20:36.290Z,1.40
2018-01-29T11:23:04.600Z,1.50
2018-01-29T11:25:32.961Z,1.30
2018-01-29T11:28:01.275Z,1.77
2018-01-29T11:30:29.587Z,1.40
2018-01-29T11:32:57.940Z,2.00
2018-01-29T11:35:27.011Z,1.60
2018-01-29T11:37:55.328Z,1.30
2018-01-29T11:40:23.783Z,1.20
2018-01-29T11:42:52.095Z,1.50
2018-01-29T11:45:20.407Z,1.10
2018-01-29T11:47:49.062Z,1.23
2018-01-29T11:50:17.375Z,1.17
2018-01-29T11:52:45.688Z,1.33
2018-01-29T11:55:14.289Z,1.30
2018-01-29T11:57:43.359Z,1.40
2018-01-29T12:00:12.432Z,1.10
2018-01-29T12:02:40.774Z,1.10
2018-01-29T12:05:09.856Z,1.20
2018-01-29T12:07:38.971Z,1.00
2018-01-29T12:10:07.303Z,1.27
2018-01-29T12:12:35.667Z,1.23
2018-01-29T12:15:04.268Z,1.50
2018-01-29T12:17:32.579Z,1.10
2018-01-29T12:20:00.890Z,1.20
2018-01-29T12:22:30.722Z,0.90
2018-01-29T12:24:59.146Z,1.13
2018-01-29T12:27:27.507Z,1.50
2018-01-29T12:29:55.865Z,1.00
2018-01-29T12:32:24.168Z,1.20
2018-01-29T12:34:53.244Z,1.30
2018-01-29T12:37:22.383Z,1.50
2018-01-29T12:39:50.694Z,1.33
2018-01-29T12:42:19.012Z,1.40
2018-01-29T12:44:47.852Z,1.07
2018-01-29T12:47:16.179Z,1.80
2018-01-29T12:49:44.491Z,4.40
2018-01-29T12:52:12.843Z,2.60
2018-01-29T12:54:41.151Z,4.07
2018-01-29T12:57:09.464Z,5.13
2018-01-29T12:59:37.832Z,1.30
2018-01-29T13:02:06.135Z,1.43
2018-01-29T13:04:34.856Z,1.43
2018-01-29T13:07:03.320Z,1.20
2018-01-29T13:09:33.040Z,1.60
2018-01-29T13:12:01.603Z,1.50
2018-01-29T13:14:29.674Z,1.40
2018-01-29T13:16:58.027Z,1.67
2018-01-29T13:19:26.338Z,1.20
2018-01-29T13:21:54.650Z,1.50
2018-01-29T13:24:23.268Z,1.67
2018-01-29T13:26:52.343Z,1.40
2018-01-29T13:29:20.652Z,1.30
2018-01-29T13:31:50.215Z,1.37
2018-01-29T13:34:18.523Z,1.57
2018-01-29T13:36:46.831Z,1.50
2018-01-29T13:39:15.171Z,1.50
2018-01-29T13:41:43.476Z,1.60
2018-01-29T13:44:12.547Z,1.50
2018-01-29T13:46:40.903Z,1.17
2018-01-29T13:49:09.744Z,1.37
2018-01-29T13:51:38.051Z,1.63
2018-01-29T13:54:06.408Z,1.93
2018-01-29T13:56:35.677Z,1.40
2018-01-29T13:59:04.657Z,1.10
2018-01-29T14:01:34.060Z,2.20
2018-01-29T14:04:02.455Z,1.50
2018-01-29T14:06:30.835Z,1.60
2018-01-29T14:08:59.945Z,1.50
2018-01-29T14:11:28.252Z,1.37
2018-01-29T14:13:56.558Z,1.37
2018-01-29T14:16:24.923Z,1.10
2018-01-29T14:18:53.429Z,1.13
2018-01-29T14:21:21.741Z,1.30
2018-01-29T14:23:50.355Z,1.00
2018-01-29T14:26:18.667Z,1.10
2018-01-29T14:28:47.293Z,1.10
2018-01-29T14:31:15.849Z,1.07
2018-01-29T14:33:44.163Z,1.37
2018-01-29T14:36:13.223Z,1.40
2018-01-29T14:38:41.539Z,1.40
2018-01-29T14:41:09.862Z,1.10
2018-01-29T14:43:38.219Z,1.10
2018-01-29T14:46:06.527Z,1.33
2018-01-29T14:48:35.119Z,1.60
2018-01-29T14:51:03.471Z,1.30
2018-01-29T14:53:31.792Z,1.43
2018-01-29T14:56:00.104Z,1.40
2018-01-29T14:58:28.472Z,1.50
2018-01-29T15:00:56.791Z,1.00
2018-01-29T15:03:25.649Z,1.33
2018-01-29T15:05:54.008Z,1.00
2018-01-29T15:08:22.738Z,1.30
2018-01-29T15:10:51.055Z,1.70
2018-01-29T15:13:20.187Z,1.00
2018-01-29T15:15:48.540Z,1.40
2018-01-29T15:18:16.890Z,2.23
2018-01-29T15:20:45.884Z,1.47
2018-01-29T15:23:14.200Z,1.13
2018-01-29T15:25:42.498Z,1.10
2018-01-29T15:28:10.846Z,1.40
2018-01-29T15:30:39.168Z,1.10
2018-01-29T15:33:08.175Z,1.20
2018-01-29T15:35:36.523Z,1.57
2018-01-29T15:38:04.827Z,1.47
2018-01-29T15:40:33.123Z,1.50
2018-01-29T15:43:01.745Z,1.90
2018-01-29T15:45:30.055Z,1.20
2018-01-29T15:47:58.456Z,1.50
2018-01-29T15:50:26.915Z,1.67
2018-01-29T15:52:55.275Z,1.10
2018-01-29T15:55:23.601Z,1.27
2018-01-29T15:57:51.900Z,1.47
2018-01-29T16:00:20.624Z,1.27
2018-01-29T16:02:48.928Z,1.73
2018-01-29T16:05:17.231Z,1.53
2018-01-29T16:07:45.604Z,1.87
2018-01-29T16:10:13.984Z,2.53
2018-01-29T16:12:43.094Z,1.57
2018-01-29T16:15:11.397Z,1.80
2018-01-29T16:17:39.751Z,1.80
2018-01-29T16:20:08.106Z,2.07
2018-01-29T16:22:36.404Z,3.43
2018-01-29T16:25:04.703Z,2.17
2018-01-29T16:27:33.048Z,1.63
2018-01-29T16:30:01.355Z,2.53
2018-01-29T16:32:29.655Z,1.20
2018-01-29T16:34:57.996Z,1.80
2018-01-29T16:37:26.300Z,1.13
2018-01-29T16:39:54.707Z,9.20
2018-01-29T16:42:23.043Z,2.20
2018-01-29T16:44:51.347Z,2.20
2018-01-29T16:47:19.647Z,1.70
2018-01-29T16:49:48.258Z,2.20
2018-01-29T16:52:16.559Z,1.70
2018-01-29T16:54:44.871Z,2.10
2018-01-29T16:57:13.348Z,2.00
2018-01-29T16:59:41.863Z,1.70
2018-01-29T17:02:10.223Z,2.03
2018-01-29T17:04:39.252Z,2.07
2018-01-29T17:07:07.600Z,1.80
2018-01-29T17:09:36.711Z,1.90
2018-01-29T17:12:05.072Z,2.37
2018-01-29T17:14:33.523Z,2.03
2018-01-29T17:17:01.884Z,2.10
2018-01-29T17:19:30.847Z,2.40
2018-01-29T17:21:59.211Z,3.13
2018-01-29T17:24:27.751Z,3.30
2018-01-29T17:26:56.096Z,3.27
2018-01-29T17:29:24.753Z,2.50
2018-01-29T17:31:54.627Z,2.80
2018-01-29T17:34:24.180Z,4.30
2018-01-29T17:36:52.486Z,3.40
2018-01-29T17:39:20.790Z,3.80
2018-01-29T17:41:49.923Z,3.77
2018-01-29T17:44:18.223Z,2.93
2018-01-29T17:46:46.527Z,2.90
2018-01-29T17:49:14.923Z,2.27
2018-01-29T17:51:43.271Z,3.03
2018-01-29T17:54:11.579Z,3.60
2018-01-29T17:56:39.915Z,3.47
2018-01-29T17:59:08.261Z,2.33
2018-01-29T18:01:37.263Z,2.77
2018-01-29T18:04:05.623Z,3.50
2018-01-29T18:06:33.843Z,2.47
2018-01-29T18:09:02.155Z,1.87
2018-01-29T18:11:30.499Z,2.30
2018-01-29T18:13:59.194Z,2.80
2018-01-29T18:16:27.550Z,3.00
2018-01-29T18:18:56.057Z,3.00
2018-01-29T18:21:24.783Z,2.80
2018-01-29T18:23:53.085Z,2.60
2018-01-29T18:26:21.660Z,3.10
2018-01-29T18:28:49.959Z,4.67
2018-01-29T18:31:18.968Z,3.90
2018-01-29T18:33:47.339Z,3.30
2018-01-29T18:36:15.663Z,3.20
2018-01-29T18:38:44.154Z,2.93
2018-01-29T18:41:12.519Z,4.00
2018-01-29T18:43:40.816Z,2.00
2018-01-29T18:46:10.443Z,2.30
2018-01-29T18:48:38.841Z,2.50
2018-01-29T18:51:07.132Z,3.00
2018-01-29T18:53:35.492Z,2.40
2018-01-29T18:56:03.800Z,2.90
2018-01-29T18:58:32.136Z,4.07
2018-01-29T19:01:01.749Z,3.40
2018-01-29T19:03:30.050Z,3.00
2018-01-29T19:05:59.575Z,3.27
2018-01-29T19:08:28.335Z,3.47
2018-01-29T19:10:57.450Z,4.00
2018-01-29T19:13:25.902Z,2.40
2018-01-29T19:15:55.586Z,3.30
2018-01-29T19:18:23.899Z,1.83
2018-01-29T19:20:53.082Z,2.23
2018-01-29T19:23:21.416Z,1.70
2018-01-29T19:25:49.762Z,1.70
2018-01-29T19:28:18.923Z,1.60
2018-01-29T19:30:49.275Z,1.90
2018-01-29T19:33:17.537Z,1.57
2018-01-29T19:35:45.835Z,1.77
2018-01-29T19:38:14.399Z,2.03
2018-01-29T19:40:43.794Z,2.77
2018-01-29T19:43:12.201Z,2.00
2018-01-29T19:45:40.559Z,2.27
2018-01-29T19:48:09.698Z,2.23
2018-01-29T19:50:38.152Z,2.17
2018-01-29T19:53:06.509Z,1.80
2018-01-29T19:55:35.433Z,1.40
2018-01-29T19:58:03.644Z,1.70
2018-01-29T20:00:31.981Z,2.20
2018-01-29T20:03:00.279Z,1.87
2018-01-29T20:05:28.681Z,1.47
2018-01-29T20:07:57.021Z,1.20
2018-01-29T20:10:26.083Z,1.43
2018-01-29T20:12:54.788Z,1.23
2018-01-29T20:15:23.856Z,1.30
2018-01-29T20:17:52.392Z,1.40
2018-01-29T20:20:20.794Z,1.00
2018-01-29T20:22:49.914Z,1.53
2018-01-29T20:25:19.581Z,1.30
2018-01-29T20:27:47.921Z,1.97
2018-01-29T20:30:17.038Z,1.80
2018-01-29T20:32:45.367Z,1.73
2018-01-29T20:35:13.719Z,1.60
2018-01-29T20:37:42.628Z,1.30
2018-01-29T20:40:11.402Z,1.20
2018-01-29T20:42:39.703Z,0.83
2018-01-29T20:45:08.106Z,0.73
2018-01-29T20:47:36.502Z,1.00
2018-01-29T20:50:04.855Z,0.70
2018-01-29T20:52:33.206Z,0.80
2018-01-29T20:55:01.602Z,0.60
2018-01-29T20:57:29.967Z,0.80
2018-01-29T20:59:58.342Z,0.70
2018-01-29T21:02:26.751Z,0.70
2018-01-29T21:04:55.978Z,0.80
2018-01-29T21:07:24.280Z,0.80
2018-01-29T21:09:52.632Z,0.67
2018-01-29T21:12:21.623Z,0.70
2018-01-29T21:14:49.965Z,0.80
2018-01-29T21:17:18.275Z,0.80
2018-01-29T21:19:47.311Z,1.10
2018-01-29T21:22:15.611Z,0.93
2018-01-29T21:24:43.903Z,0.90
2018-01-29T21:27:12.435Z,1.10
2018-01-29T21:29:40.961Z,1.17
2018-01-29T21:32:09.747Z,1.00
2018-01-29T21:34:38.886Z,1.10
2018-01-29T21:37:07.207Z,0.70
2018-01-29T21:39:35.506Z,0.90
2018-01-29T21:42:03.927Z,0.70
2018-01-29T21:44:32.509Z,0.87
2018-01-29T21:47:00.870Z,0.60
2018-01-29T21:49:29.179Z,0.90
2018-01-29T21:51:57.532Z,0.80
2018-01-29T21:54:25.805Z,0.60
2018-01-29T21:56:54.000Z,0.80
2018-01-29T21:59:22.571Z,1.13
2018-01-29T22:01:50.936Z,0.70
2018-01-29T22:04:19.276Z,0.80
2018-01-29T22:06:47.626Z,0.77
2018-01-29T22:09:16.743Z,0.70
2018-01-29T22:11:45.090Z,0.90
2018-01-29T22:14:13.429Z,0.60
2018-01-29T22:16:42.078Z,0.80
2018-01-29T22:19:10.370Z,0.70
2018-01-29T22:21:38.659Z,0.90
2018-01-29T22:24:06.995Z,0.90
2018-01-29T22:26:35.297Z,0.90
2018-01-29T22:29:04.635Z,0.80
2018-01-29T22:31:33.177Z,1.10
2018-01-29T22:34:01.572Z,0.90
2018-01-29T22:36:29.920Z,0.83
2018-01-29T22:38:58.223Z,0.90
2018-01-29T22:41:26.526Z,0.87
2018-01-29T22:43:55.795Z,0.90
2018-01-29T22:46:24.086Z,0.90
2018-01-29T22:48:52.980Z,0.93
2018-01-29T22:51:21.325Z,0.90
2018-01-29T22:53:49.803Z,1.00
2018-01-29T22:56:18.615Z,1.07
2018-01-29T22:58:46.956Z,0.87
2018-01-29T23:01:15.811Z,0.80
2018-01-29T23:03:44.876Z,0.70
2018-01-29T23:06:13.237Z,0.90
2018-01-29T23:08:41.807Z,1.23
2018-01-29T23:11:10.135Z,0.90
2018-01-29T23:13:38.446Z,0.90
2018-01-29T23:16:07.051Z,1.00
2018-01-29T23:18:35.568Z,1.00
2018-01-29T23:21:03.863Z,0.73
2018-01-29T23:23:32.468Z,0.83
2018-01-29T23:26:00.807Z,0.90
2018-01-29T23:28:29.500Z,0.97
2018-01-29T23:30:57.847Z,0.70
2018-01-29T23:33:26.184Z,1.33
2018-01-29T23:35:54.492Z,0.97
2018-01-29T23:38:22.947Z,0.80
2018-01-29T23:40:51.247Z,0.83
2018-01-29T23:43:19.546Z,0.60
2018-01-29T23:45:47.900Z,1.00
2018-01-29T23:48:16.214Z,1.00
2018-01-29T23:50:44.808Z,0.90
2018-01-29T23:53:14.007Z,0.87
2018-01-29T23:55:42.302Z,1.30
2018-01-29T23:58:10.604Z,0.80
